createdAt,value
2019-03-22T00:00:45.138Z,68.23
2019-03-22T00:03:11.692Z,67.96
2019-03-22T00:05:38.252Z,68.03
2019-03-22T00:08:04.904Z,67.98
2019-03-22T00:10:31.308Z,68.18
2019-03-22T00:12:57.998Z,68.11
2019-03-22T00:15:24.481Z,68.20
2019-03-22T00:17:51.015Z,68.16
2019-03-22T00:20:17.298Z,68.17
2019-03-22T00:22:43.953Z,68.03
2019-03-22T00:25:10.460Z,67.73
2019-03-22T00:27:37.026Z,68.13
2019-03-22T00:30:08.231Z,68.65
2019-03-22T00:32:34.873Z,68.35
2019-03-22T00:35:01.346Z,68.08
2019-03-22T00:37:27.894Z,68.25
2019-03-22T00:39:56.107Z,68.14
2019-03-22T00:42:22.511Z,68.42
2019-03-22T00:44:48.846Z,68.50
2019-03-22T00:47:15.132Z,68.26
2019-03-22T00:49:41.559Z,68.65
2019-03-22T00:52:08.091Z,68.88
2019-03-22T00:54:34.550Z,68.72
2019-03-22T00:57:01.386Z,68.53
2019-03-22T00:59:27.885Z,68.65
2019-03-22T01:01:54.566Z,68.68
2019-03-22T01:04:21.077Z,68.56
2019-03-22T01:06:47.670Z,68.87
2019-03-22T01:09:14.095Z,68.51
2019-03-22T01:11:40.684Z,68.56
2019-03-22T01:14:07.646Z,68.51
2019-03-22T01:16:34.142Z,68.47
2019-03-22T01:19:00.603Z,68.27
2019-03-22T01:21:26.991Z,67.96
2019-03-22T01:23:53.391Z,67.93
2019-03-22T01:26:19.819Z,68.35
2019-03-22T01:28:46.474Z,68.50
2019-03-22T01:31:13.087Z,68.63
2019-03-22T01:33:39.595Z,68.64
2019-03-22T01:36:06.388Z,68.61
2019-03-22T01:38:32.792Z,68.61
2019-03-22T01:40:59.406Z,68.87
2019-03-22T01:43:25.731Z,68.64
2019-03-22T01:45:52.027Z,68.75
2019-03-22T01:48:19.102Z,68.75
2019-03-22T01:50:45.694Z,68.59
2019-03-22T01:53:12.505Z,68.60
2019-03-22T01:55:39.096Z,68.60
2019-03-22T01:58:05.723Z,68.51
2019-03-22T02:00:32.322Z,68.57
2019-03-22T02:02:59.130Z,68.57
2019-03-22T02:05:26.115Z,68.73
2019-03-22T02:07:52.819Z,68.47
2019-03-22T02:10:19.559Z,68.22
2019-03-22T02:12:46.030Z,68.73
2019-03-22T02:15:14.339Z,68.73
2019-03-22T02:17:41.300Z,68.54
2019-03-22T02:20:10.763Z,68.57
2019-03-22T02:22:37.392Z,68.53
2019-03-22T02:25:08.433Z,68.74
2019-03-22T02:27:35.141Z,68.82
2019-03-22T02:30:03.285Z,68.77
2019-03-22T02:32:29.943Z,68.61
2019-03-22T02:34:56.371Z,68.46
2019-03-22T02:37:22.817Z,68.38
2019-03-22T02:39:49.334Z,68.75
2019-03-22T02:42:15.741Z,68.82
2019-03-22T02:44:42.460Z,69.04
2019-03-22T02:47:08.863Z,69.15
2019-03-22T02:49:35.504Z,69.36
2019-03-22T02:52:02.023Z,68.88
2019-03-22T02:54:28.508Z,69.52
2019-03-22T02:56:55.225Z,69.94
2019-03-22T02:59:21.606Z,69.87
2019-03-22T03:01:48.206Z,69.64
2019-03-22T03:04:14.851Z,69.74
2019-03-22T03:06:41.505Z,69.70
2019-03-22T03:09:08.221Z,69.93
2019-03-22T03:11:34.754Z,69.55
2019-03-22T03:14:01.471Z,69.70
2019-03-22T03:16:27.994Z,69.91
2019-03-22T03:18:55.007Z,69.67
2019-03-22T03:21:21.599Z,69.24
2019-03-22T03:23:48.067Z,69.74
2019-03-22T03:26:14.482Z,69.72
2019-03-22T03:28:41.018Z,69.80
2019-03-22T03:31:07.696Z,70.03
2019-03-22T03:33:34.129Z,69.67
2019-03-22T03:36:00.931Z,69.75
2019-03-22T03:38:27.744Z,69.77
2019-03-22T03:40:54.396Z,70.02
2019-03-22T03:43:20.928Z,69.84
2019-03-22T03:45:47.551Z,69.85
2019-03-22T03:48:14.244Z,69.48
2019-03-22T03:50:40.675Z,69.98
2019-03-22T03:53:07.411Z,69.78
2019-03-22T03:55:34.300Z,69.95
2019-03-22T03:58:01.082Z,69.72
2019-03-22T04:00:27.763Z,70.14
2019-03-22T04:02:54.295Z,69.77
2019-03-22T04:05:20.781Z,69.90
2019-03-22T04:07:47.409Z,70.32
2019-03-22T04:10:14.143Z,70.76
2019-03-22T04:12:40.526Z,70.66
2019-03-22T04:15:07.847Z,70.60
2019-03-22T04:17:34.392Z,70.88
2019-03-22T04:20:00.920Z,70.91
2019-03-22T04:22:27.444Z,70.88
2019-03-22T04:24:53.990Z,71.08
2019-03-22T04:27:20.682Z,70.75
2019-03-22T04:29:47.107Z,70.87
2019-03-22T04:32:13.799Z,70.86
2019-03-22T04:34:40.197Z,70.66
2019-03-22T04:37:06.711Z,70.47
2019-03-22T04:39:33.103Z,70.84
2019-03-22T04:41:59.763Z,70.95
2019-03-22T04:44:26.383Z,70.74
2019-03-22T04:46:53.503Z,70.47
2019-03-22T04:49:21.786Z,70.39
2019-03-22T04:51:49.056Z,70.45
2019-03-22T04:54:18.455Z,70.45
2019-03-22T04:56:46.090Z,70.88
2019-03-22T04:59:19.240Z,70.92
2019-03-22T05:01:45.688Z,70.67
2019-03-22T05:04:12.354Z,70.70
2019-03-22T05:06:40.747Z,70.80
2019-03-22T05:09:10.364Z,71.05
2019-03-22T05:11:37.460Z,71.13
2019-03-22T05:14:04.326Z,71.25
2019-03-22T05:16:34.625Z,71.58
2019-03-22T05:19:03.471Z,71.48
2019-03-22T05:21:31.468Z,71.69
2019-03-22T05:24:01.281Z,71.89
2019-03-22T05:26:31.415Z,71.63
2019-03-22T05:28:58.118Z,71.80
2019-03-22T05:31:56.321Z,71.72
2019-03-22T05:34:22.818Z,71.50
2019-03-22T05:36:49.331Z,71.42
2019-03-22T05:39:15.872Z,71.24
2019-03-22T05:41:42.251Z,70.80
2019-03-22T05:44:09.577Z,70.88
2019-03-22T05:46:36.019Z,70.86
2019-03-22T05:49:02.879Z,70.73
2019-03-22T05:51:29.286Z,70.48
2019-03-22T05:53:56.019Z,70.26
2019-03-22T05:56:22.619Z,69.94
2019-03-22T05:58:49.055Z,70.10
2019-03-22T06:01:15.448Z,69.99
2019-03-22T06:03:42.272Z,70.08
2019-03-22T06:06:08.676Z,69.86
2019-03-22T06:08:35.445Z,69.51
2019-03-22T06:11:01.977Z,69.63
2019-03-22T06:13:28.415Z,69.13
2019-03-22T06:15:55.274Z,69.41
2019-03-22T06:18:21.815Z,68.71
2019-03-22T06:20:48.455Z,69.11
2019-03-22T06:23:15.167Z,68.73
2019-03-22T06:25:41.818Z,68.61
2019-03-22T06:28:09.956Z,68.18
2019-03-22T06:30:36.318Z,68.63
2019-03-22T06:33:02.947Z,68.32
2019-03-22T06:35:29.519Z,68.61
2019-03-22T06:37:55.823Z,68.97
2019-03-22T06:40:22.452Z,67.94
2019-03-22T06:42:48.939Z,67.34
2019-03-22T06:45:15.521Z,65.87
2019-03-22T06:47:41.959Z,64.31
2019-03-22T06:50:08.701Z,63.60
2019-03-22T06:52:35.333Z,62.75
2019-03-22T06:55:03.734Z,62.00
2019-03-22T06:57:30.245Z,60.88
2019-03-22T07:00:06.020Z,60.18
2019-03-22T07:02:25.163Z,59.21
2019-03-22T07:04:51.558Z,59.49
2019-03-22T07:07:17.967Z,58.50
2019-03-22T07:09:44.710Z,57.60
2019-03-22T07:12:11.144Z,56.96
2019-03-22T07:14:38.204Z,56.16
2019-03-22T07:17:04.683Z,55.67
2019-03-22T07:19:31.255Z,55.05
2019-03-22T07:21:57.683Z,54.65
2019-03-22T07:24:24.172Z,53.62
2019-03-22T07:26:50.617Z,53.53
2019-03-22T07:29:17.010Z,53.78
2019-03-22T07:31:43.387Z,54.00
2019-03-22T07:34:09.875Z,54.10
2019-03-22T07:36:36.550Z,53.13
2019-03-22T07:39:06.846Z,52.64
2019-03-22T07:41:33.215Z,53.31
2019-03-22T07:43:59.603Z,53.61
2019-03-22T07:46:26.130Z,53.13
2019-03-22T07:48:52.538Z,53.14
2019-03-22T07:51:18.967Z,53.29
2019-03-22T07:53:46.292Z,53.65
2019-03-22T07:56:12.804Z,54.15
2019-03-22T07:58:39.464Z,54.75
2019-03-22T08:01:05.852Z,55.14
2019-03-22T08:03:32.299Z,55.03
2019-03-22T08:05:58.911Z,55.66
2019-03-22T08:08:25.442Z,54.28
2019-03-22T08:10:52.038Z,53.53
2019-03-22T08:13:18.462Z,53.03
2019-03-22T08:15:45.263Z,52.66
2019-03-22T08:18:11.715Z,52.66
2019-03-22T08:20:38.920Z,52.54
2019-03-22T08:23:17.002Z,53.13
2019-03-22T08:25:43.634Z,53.48
2019-03-22T08:28:10.392Z,53.33
2019-03-22T08:30:42.847Z,53.80
2019-03-22T08:33:05.212Z,54.35
2019-03-22T08:35:31.739Z,54.70
2019-03-22T08:37:58.179Z,54.89
2019-03-22T08:40:24.587Z,55.26
2019-03-22T08:42:51.683Z,55.46
2019-03-22T08:45:18.587Z,55.72
2019-03-22T08:47:45.219Z,56.02
2019-03-22T08:50:12.219Z,56.20
2019-03-22T08:52:38.628Z,56.63
2019-03-22T08:55:05.881Z,56.70
2019-03-22T08:57:32.479Z,56.91
2019-03-22T08:59:58.888Z,57.17
2019-03-22T09:02:25.600Z,56.96
2019-03-22T09:04:51.972Z,57.44
2019-03-22T09:11:21.554Z,57.82
2019-03-22T09:13:48.218Z,57.99
2019-03-22T09:16:14.639Z,58.25
2019-03-22T09:18:41.168Z,58.68
2019-03-22T09:21:07.632Z,58.95
2019-03-22T09:23:34.228Z,59.23
2019-03-22T09:26:00.787Z,59.41
2019-03-22T09:28:27.274Z,59.62
2019-03-22T09:30:54.346Z,60.05
2019-03-22T09:33:20.987Z,60.16
2019-03-22T09:35:47.801Z,60.18
2019-03-22T09:38:14.238Z,60.33
2019-03-22T09:40:40.947Z,60.37
2019-03-22T09:43:07.390Z,60.42
2019-03-22T09:45:34.080Z,60.53
2019-03-22T09:48:00.667Z,60.61
2019-03-22T09:50:27.157Z,60.78
2019-03-22T09:52:53.753Z,60.91
2019-03-22T09:55:20.291Z,60.91
2019-03-22T09:57:49.308Z,61.16
2019-03-22T10:00:33.610Z,61.10
2019-03-22T10:03:01.654Z,61.56
2019-03-22T10:05:28.449Z,61.69
2019-03-22T10:07:54.852Z,61.71
2019-03-22T10:10:21.735Z,61.86
2019-03-22T10:12:48.190Z,61.96
2019-03-22T10:15:14.824Z,62.16
2019-03-22T10:17:41.392Z,62.21
2019-03-22T10:20:08.539Z,62.35
2019-03-22T10:22:34.971Z,62.51
2019-03-22T10:25:04.689Z,62.50
2019-03-22T10:27:31.055Z,62.72
2019-03-22T10:29:57.709Z,63.02
2019-03-22T10:32:24.507Z,62.70
2019-03-22T10:34:51.160Z,62.55
2019-03-22T10:37:17.692Z,62.64
2019-03-22T10:39:44.174Z,62.39
2019-03-22T10:42:10.735Z,62.12
2019-03-22T10:44:39.348Z,62.29
2019-03-22T10:47:06.057Z,61.73
2019-03-22T10:49:32.438Z,61.89
2019-03-22T10:51:59.098Z,61.92
2019-03-22T10:54:25.585Z,61.40
2019-03-22T10:56:52.136Z,61.17
2019-03-22T10:59:18.598Z,61.13
2019-03-22T11:01:52.267Z,61.11
2019-03-22T11:04:13.529Z,61.62
2019-03-22T11:06:40.123Z,61.30
2019-03-22T11:09:07.790Z,61.14
2019-03-22T11:11:34.526Z,60.38
2019-03-22T11:14:01.063Z,59.85
2019-03-22T11:16:27.527Z,59.50
2019-03-22T11:18:54.054Z,59.71
2019-03-22T11:21:20.361Z,58.81
2019-03-22T11:23:46.795Z,58.75
2019-03-22T11:26:13.179Z,59.29
2019-03-22T11:28:39.663Z,58.96
2019-03-22T11:31:06.453Z,58.35
2019-03-22T11:33:32.866Z,58.46
2019-03-22T11:35:59.368Z,58.70
2019-03-22T11:38:25.864Z,58.37
2019-03-22T11:40:52.358Z,58.54
2019-03-22T11:43:18.973Z,58.83
2019-03-22T11:45:45.475Z,58.61
2019-03-22T11:48:12.146Z,58.38
2019-03-22T11:50:38.881Z,58.52
2019-03-22T11:53:05.428Z,58.61
2019-03-22T11:55:32.661Z,58.70
2019-03-22T11:57:59.048Z,58.89
2019-03-22T12:00:26.519Z,58.77
2019-03-22T12:02:53.185Z,58.94
2019-03-22T12:05:21.266Z,59.17
2019-03-22T12:07:47.913Z,59.31
2019-03-22T12:10:19.766Z,59.38
2019-03-22T12:12:46.803Z,59.70
2019-03-22T12:15:19.659Z,59.82
2019-03-22T12:17:46.544Z,59.87
2019-03-22T12:20:16.968Z,60.76
2019-03-22T12:22:43.755Z,60.36
2019-03-22T12:25:14.346Z,60.38
2019-03-22T12:27:41.021Z,60.56
2019-03-22T12:30:13.845Z,60.81
2019-03-22T12:32:40.283Z,60.59
2019-03-22T12:35:09.075Z,59.74
2019-03-22T12:37:35.724Z,59.24
2019-03-22T12:40:07.651Z,59.15
2019-03-22T12:42:34.358Z,58.86
2019-03-22T12:45:00.859Z,58.43
2019-03-22T12:47:27.702Z,58.53
2019-03-22T12:49:54.126Z,58.62
2019-03-22T12:52:20.543Z,58.60
2019-03-22T12:54:47.024Z,58.25
2019-03-22T12:57:13.535Z,58.11
2019-03-22T12:59:40.070Z,57.81
2019-03-22T13:02:06.587Z,57.67
2019-03-22T13:04:33.243Z,57.59
2019-03-22T13:06:59.932Z,57.53
2019-03-22T13:09:26.263Z,57.23
2019-03-22T13:11:52.548Z,57.54
2019-03-22T13:14:18.975Z,57.20
2019-03-22T13:16:45.566Z,57.36
2019-03-22T13:19:11.969Z,57.11
2019-03-22T13:21:38.786Z,57.25
2019-03-22T13:24:05.179Z,57.17
2019-03-22T13:26:31.860Z,57.18
2019-03-22T13:28:58.346Z,56.99
2019-03-22T13:31:24.783Z,56.93
2019-03-22T13:33:51.175Z,57.07
2019-03-22T13:36:17.607Z,57.05
2019-03-22T13:38:44.409Z,56.89
2019-03-22T13:41:11.274Z,56.93
2019-03-22T13:43:37.758Z,57.07
2019-03-22T13:46:04.250Z,56.83
2019-03-22T13:48:31.186Z,57.00
2019-03-22T13:50:57.584Z,56.87
2019-03-22T13:53:24.125Z,56.86
2019-03-22T13:55:50.532Z,56.79
2019-03-22T13:58:17.122Z,56.79
2019-03-22T14:00:43.732Z,57.30
2019-03-22T14:03:10.346Z,57.10
2019-03-22T14:05:36.862Z,56.98
2019-03-22T14:08:03.501Z,57.25
2019-03-22T14:10:34.916Z,57.32
2019-03-22T14:13:05.241Z,57.59
2019-03-22T14:15:32.188Z,57.23
2019-03-22T14:17:59.287Z,57.02
2019-03-22T14:20:25.981Z,57.30
2019-03-22T14:22:53.976Z,57.06
2019-03-22T14:25:20.700Z,57.65
2019-03-22T14:27:47.232Z,57.48
2019-03-22T14:30:14.230Z,57.52
2019-03-22T14:32:40.743Z,57.73
2019-03-22T14:35:09.519Z,57.48
2019-03-22T14:37:36.309Z,57.84
2019-03-22T14:40:05.052Z,57.80
2019-03-22T14:42:31.546Z,57.93
2019-03-22T14:44:57.988Z,58.18
2019-03-22T14:47:24.381Z,58.28
2019-03-22T14:49:50.976Z,58.31
2019-03-22T14:52:17.360Z,58.11
2019-03-22T14:54:43.758Z,58.38
2019-03-22T14:57:10.261Z,58.71
2019-03-22T14:59:36.695Z,58.53
2019-03-22T15:02:03.385Z,58.48
2019-03-22T15:04:29.990Z,58.99
2019-03-22T15:06:56.688Z,58.85
2019-03-22T15:09:23.246Z,58.89
2019-03-22T15:11:49.639Z,59.11
2019-03-22T15:14:34.749Z,59.04
2019-03-22T15:17:01.165Z,59.36
2019-03-22T15:19:46.132Z,59.47
2019-03-22T15:22:15.034Z,59.41
2019-03-22T15:24:58.559Z,59.60
2019-03-22T15:27:39.880Z,59.62
2019-03-22T15:30:10.894Z,59.74
2019-03-22T15:32:43.464Z,59.96
2019-03-22T15:35:21.201Z,60.37
2019-03-22T15:38:06.067Z,60.27
2019-03-22T15:40:32.542Z,60.20
2019-03-22T15:42:59.132Z,60.29
2019-03-22T15:45:25.541Z,60.34
2019-03-22T15:47:52.576Z,60.46
2019-03-22T15:50:19.275Z,60.48
2019-03-22T15:52:45.591Z,60.43
2019-03-22T15:55:12.311Z,60.52
2019-03-22T15:57:41.524Z,60.16
2019-03-22T16:00:15.462Z,60.69
2019-03-22T16:02:42.198Z,60.80
2019-03-22T16:05:10.207Z,61.04
2019-03-22T16:07:37.082Z,61.33
2019-03-22T16:10:06.943Z,61.36
2019-03-22T16:12:33.585Z,61.75
2019-03-22T16:14:59.999Z,61.69
2019-03-22T16:17:26.463Z,61.71
2019-03-22T16:19:52.859Z,62.16
2019-03-22T16:22:19.166Z,62.25
2019-03-22T16:24:45.672Z,62.58
2019-03-22T16:27:12.316Z,62.61
2019-03-22T16:29:38.627Z,62.52
2019-03-22T16:32:05.059Z,62.88
2019-03-22T16:34:31.459Z,62.62
2019-03-22T16:36:57.892Z,62.87
2019-03-22T16:39:24.296Z,63.19
2019-03-22T16:41:51.336Z,63.11
2019-03-22T16:44:17.988Z,63.31
2019-03-22T16:46:44.531Z,63.60
2019-03-22T16:49:10.930Z,63.83
2019-03-22T16:51:37.431Z,63.86
2019-03-22T16:54:04.547Z,64.50
2019-03-22T16:56:31.072Z,64.50
2019-03-22T16:58:57.361Z,64.30
2019-03-22T17:01:24.079Z,64.50
2019-03-22T17:03:50.507Z,64.75
2019-03-22T17:06:17.116Z,64.46
2019-03-22T17:08:43.568Z,65.11
2019-03-22T17:11:10.069Z,65.11
2019-03-22T17:13:36.599Z,64.70
2019-03-22T17:16:03.323Z,64.70
2019-03-22T17:18:30.051Z,64.94
2019-03-22T17:20:56.500Z,65.08
2019-03-22T17:23:22.935Z,65.08
2019-03-22T17:25:49.751Z,65.14
2019-03-22T17:28:16.434Z,65.44
2019-03-22T17:30:42.763Z,65.44
2019-03-22T17:33:09.289Z,65.24
2019-03-22T17:35:35.902Z,65.24
2019-03-22T17:38:02.608Z,65.85
2019-03-22T17:40:29.081Z,65.30
2019-03-22T17:42:55.466Z,65.61
2019-03-22T17:45:22.083Z,65.98
2019-03-22T17:47:48.595Z,65.98
2019-03-22T17:50:15.393Z,66.00
2019-03-22T17:52:41.885Z,65.81
2019-03-22T17:55:09.919Z,65.91
2019-03-22T17:57:36.470Z,65.87
2019-03-22T18:00:06.432Z,65.81
2019-03-22T18:02:32.933Z,65.58
2019-03-22T18:04:59.247Z,65.67
2019-03-22T18:07:25.556Z,65.54
2019-03-22T18:09:51.875Z,65.56
2019-03-22T18:12:18.551Z,65.82
2019-03-22T18:14:44.845Z,66.13
2019-03-22T18:17:11.153Z,65.90
2019-03-22T18:19:37.790Z,65.94
2019-03-22T18:22:04.196Z,66.08
2019-03-22T18:24:30.509Z,66.16
2019-03-22T18:26:57.038Z,66.29
2019-03-22T18:29:23.355Z,66.36
2019-03-22T18:31:50.112Z,66.38
2019-03-22T18:34:16.507Z,66.50
2019-03-22T18:36:42.915Z,66.53
2019-03-22T18:39:09.338Z,66.62
2019-03-22T18:41:35.932Z,66.67
2019-03-22T18:44:02.313Z,66.86
2019-03-22T18:46:28.612Z,66.89
2019-03-22T18:48:55.499Z,67.11
2019-03-22T18:51:21.793Z,67.04
2019-03-22T18:53:48.517Z,67.04
2019-03-22T18:56:14.939Z,67.16
2019-03-22T18:58:41.276Z,67.20
2019-03-22T19:01:07.675Z,67.05
2019-03-22T19:03:34.008Z,66.98
2019-03-22T19:06:00.396Z,67.27
2019-03-22T19:08:27.018Z,67.20
2019-03-22T19:10:53.648Z,67.17
2019-03-22T19:13:30.196Z,67.43
2019-03-22T19:15:48.388Z,67.27
2019-03-22T19:18:15.209Z,67.38
2019-03-22T19:20:41.659Z,67.20
2019-03-22T19:23:08.270Z,67.29
2019-03-22T19:25:35.817Z,67.17
2019-03-22T19:28:02.495Z,67.18
2019-03-22T19:30:28.785Z,67.34
2019-03-22T19:32:55.187Z,67.40
2019-03-22T19:35:21.651Z,67.38
2019-03-22T19:37:48.156Z,67.54
2019-03-22T19:40:16.499Z,67.61
2019-03-22T19:42:43.208Z,67.56
2019-03-22T19:45:13.683Z,67.67
2019-03-22T19:47:40.278Z,67.98
2019-03-22T19:50:10.231Z,68.11
2019-03-22T19:52:36.513Z,68.13
2019-03-22T19:55:08.531Z,68.18
2019-03-22T19:57:36.123Z,68.29
2019-03-22T20:00:10.346Z,68.47
2019-03-22T20:02:37.014Z,68.61
2019-03-22T20:05:07.323Z,68.77
2019-03-22T20:07:33.736Z,68.82
2019-03-22T20:10:00.303Z,68.80
2019-03-22T20:12:26.827Z,68.85
2019-03-22T20:14:53.856Z,69.12
2019-03-22T20:17:20.193Z,68.96
2019-03-22T20:19:46.870Z,69.21
2019-03-22T20:22:13.282Z,69.37
2019-03-22T20:24:40.001Z,69.66
2019-03-22T20:27:06.538Z,69.75
2019-03-22T20:29:32.977Z,69.69
2019-03-22T20:31:59.372Z,69.71
2019-03-22T20:34:25.824Z,69.36
2019-03-22T20:36:52.201Z,69.50
2019-03-22T20:39:19.025Z,69.46
2019-03-22T20:41:45.419Z,69.21
2019-03-22T20:44:12.081Z,69.46
2019-03-22T20:46:38.403Z,69.44
2019-03-22T20:49:05.238Z,69.33
2019-03-22T20:51:31.740Z,69.42
2019-03-22T20:53:58.176Z,69.65
2019-03-22T20:56:24.542Z,69.69
2019-03-22T20:58:51.319Z,69.73
2019-03-22T21:01:17.631Z,69.67
2019-03-22T21:03:43.932Z,69.61
2019-03-22T21:06:10.344Z,69.73
2019-03-22T21:08:36.768Z,69.70
2019-03-22T21:11:03.386Z,69.70
2019-03-22T21:13:29.932Z,69.94
2019-03-22T21:15:56.541Z,69.94
2019-03-22T21:18:23.167Z,70.12
2019-03-22T21:20:50.021Z,70.28
2019-03-22T21:23:16.520Z,70.21
2019-03-22T21:25:43.076Z,70.17
2019-03-22T21:28:09.524Z,70.26
2019-03-22T21:30:35.950Z,70.33
2019-03-22T21:33:02.474Z,70.26
2019-03-22T21:35:36.944Z,70.46
2019-03-22T21:37:57.714Z,70.56
2019-03-22T21:40:24.105Z,70.59
2019-03-22T21:42:50.537Z,70.82
2019-03-22T21:45:16.939Z,70.80
2019-03-22T21:47:43.431Z,71.05
2019-03-22T21:50:10.119Z,71.22
2019-03-22T21:52:36.519Z,70.77
2019-03-22T21:55:05.913Z,70.70
2019-03-22T21:57:32.479Z,70.80
2019-03-22T21:59:59.194Z,70.98
2019-03-22T22:02:25.657Z,71.10
2019-03-22T22:04:52.470Z,71.24
2019-03-22T22:07:19.024Z,71.21
2019-03-22T22:09:45.758Z,71.26
2019-03-22T22:12:12.079Z,71.29
2019-03-22T22:14:40.964Z,71.30
2019-03-22T22:17:07.309Z,71.39
2019-03-22T22:19:34.048Z,71.35
2019-03-22T22:22:00.584Z,71.36
2019-03-22T22:24:27.024Z,71.36
2019-03-22T22:26:53.486Z,71.29
2019-03-22T22:29:20.088Z,71.42
2019-03-22T22:31:46.522Z,71.42
2019-03-22T22:34:13.282Z,71.46
2019-03-22T22:36:39.697Z,71.47
2019-03-22T22:39:06.723Z,71.56
2019-03-22T22:41:33.380Z,71.37
2019-03-22T22:43:59.715Z,71.36
2019-03-22T22:46:26.143Z,71.17
2019-03-22T22:48:52.882Z,71.38
2019-03-22T22:51:19.321Z,71.31
2019-03-22T22:53:46.073Z,71.52
2019-03-22T22:56:12.440Z,71.65
2019-03-22T22:58:38.825Z,71.68
2019-03-22T23:01:05.415Z,71.56
2019-03-22T23:03:31.839Z,71.53
2019-03-22T23:06:08.867Z,71.21
2019-03-22T23:08:26.547Z,71.28
2019-03-22T23:10:53.856Z,71.37
2019-03-22T23:13:20.259Z,71.50
2019-03-22T23:15:46.611Z,71.37
2019-03-22T23:18:13.005Z,72.00
2019-03-22T23:20:39.426Z,72.26
2019-03-22T23:23:05.951Z,72.28
2019-03-22T23:25:32.250Z,72.16
2019-03-22T23:27:58.868Z,72.10
2019-03-22T23:30:25.278Z,72.20
2019-03-22T23:32:51.712Z,72.37
2019-03-22T23:35:18.194Z,72.42
2019-03-22T23:37:44.656Z,72.49
2019-03-22T23:40:11.127Z,72.50
2019-03-22T23:42:37.587Z,72.64
2019-03-22T23:45:06.665Z,72.91
2019-03-22T23:47:33.071Z,72.87
2019-03-22T23:49:59.438Z,72.99
2019-03-22T23:52:25.822Z,72.86
2019-03-22T23:54:52.264Z,72.81
2019-03-22T23:57:18.650Z,72.53
2019-03-22T23:59:45.040Z,72.35
